Time;durP1;ratioP1;P1;durP2;ratioP2;P2;SDS_P1;SDS_P2;PMS_P1;PMS_P2;Temp;Humidity;BMP_temperature;BMP_pressure;BME280_temperature;BME280_humidity;BME280_pressure;Samples;Min_cycle;Max_cycle;Signal;HPM_P1;HPM_P2
2022/10/05 00:02:22;;;;;;;8.45;6.45;;;;;;;;;;4945178;28;20046;-70
2022/10/05 00:04:52;;;;;;;10.40;6.20;;;;;;;;;;4963255;28;20054;-69
2022/10/05 00:07:20;;;;;;;10.65;7.10;;;;;;;;;;4962653;28;20070;-70
2022/10/05 00:09:57;;;;;;;9.82;6.60;;;;;;;;;;4962225;28;20054;-71
2022/10/05 00:12:24;;;;;;;10.77;5.93;;;;;;;;;;4961669;28;20069;-69
2022/10/05 00:14:54;;;;;;;11.40;6.30;;;;;;;;;;4945177;28;20062;-70
2022/10/05 00:17:28;;;;;;;7.72;6.03;;;;;;;;;;4961204;28;20496;-71
2022/10/05 00:19:54;;;;;;;8.73;6.40;;;;;;;;;;4960950;28;20486;-71
2022/10/05 00:22:28;;;;;;;9.07;5.70;;;;;;;;;;4959583;28;20101;-72
2022/10/05 00:24:56;;;;;;;9.18;5.80;;;;;;;;;;4960916;28;20504;-71
2022/10/05 00:27:25;;;;;;;8.40;5.78;;;;;;;;;;4960496;28;20385;-69
2022/10/05 00:29:57;;;;;;;9.90;5.80;;;;;;;;;;4960966;28;20146;-70
2022/10/05 00:32:25;;;;;;;11.43;6.05;;;;;;;;;;4961562;28;20043;-71
2022/10/05 00:34:52;;;;;;;10.18;6.50;;;;;;;;;;4944593;28;20058;-70
2022/10/05 00:37:18;;;;;;;9.18;5.72;;;;;;;;;;4962353;28;20058;-71
2022/10/05 00:39:44;;;;;;;11.27;6.43;;;;;;;;;;4944961;28;20054;-69
2022/10/05 00:42:09;;;;;;;9.10;6.28;;;;;;;;;;4944935;28;20047;-69
2022/10/05 00:44:38;;;;;;;10.93;7.55;;;;;;;;;;4943753;28;20086;-71
2022/10/05 00:47:09;;;;;;;10.43;6.43;;;;;;;;;;4944401;28;20113;-70
2022/10/05 00:49:46;;;;;;;15.45;7.20;;;;;;;;;;4944894;28;20149;-71
2022/10/05 00:52:45;;;;;;;11.20;5.90;;;;;;;;;;4961534;28;20189;-70
2022/10/05 00:55:20;;;;;;;9.57;5.88;;;;;;;;;;4961204;28;20142;-68
2022/10/05 00:58:24;;;;;;;8.48;5.78;;;;;;;;;;4962250;28;20515;-71
2022/10/05 01:01:11;;;;;;;6.72;4.72;;;;;;;;;;4944395;28;20077;-70
2022/10/05 01:04:20;;;;;;;8.82;4.55;;;;;;;;;;4961887;28;20051;-71
2022/10/05 01:06:58;;;;;;;7.38;4.88;;;;;;;;;;4943054;28;20078;-71
2022/10/05 01:09:57;;;;;;;6.68;4.47;;;;;;;;;;4961267;28;20078;-71
2022/10/05 01:12:40;;;;;;;8.63;3.80;;;;;;;;;;4935246;28;20427;-71
2022/10/05 01:15:23;;;;;;;5.07;4.40;;;;;;;;;;4960760;28;20058;-69
2022/10/05 01:18:08;;;;;;;6.03;4.10;;;;;;;;;;4960031;28;20058;-71
2022/10/05 01:20:45;;;;;;;6.30;4.13;;;;;;;;;;4959728;28;20427;-71
2022/10/05 01:23:17;;;;;;;9.23;4.25;;;;;;;;;;4943936;28;20193;-71
2022/10/05 01:25:57;;;;;;;5.88;3.88;;;;;;;;;;4944517;28;20050;-71
2022/10/05 01:28:30;;;;;;;5.30;3.90;;;;;;;;;;4961125;28;20050;-71
2022/10/05 01:31:04;;;;;;;10.27;4.10;;;;;;;;;;4961909;28;20076;-70
2022/10/05 01:33:41;;;;;;;5.72;3.80;;;;;;;;;;4939540;28;20070;-71
2022/10/05 01:36:33;;;;;;;6.25;3.67;;;;;;;;;;4961646;28;20050;-72
2022/10/05 01:39:07;;;;;;;8.57;3.87;;;;;;;;;;4933886;28;20146;-70
2022/10/05 01:41:41;;;;;;;5.97;2.78;;;;;;;;;;4947194;28;20567;-71
2022/10/05 01:44:19;;;;;;;5.13;3.83;;;;;;;;;;4940168;28;20042;-70
2022/10/05 01:47:09;;;;;;;2.33;1.88;;;;;;;;;;4933991;28;20483;-69
2022/10/05 01:49:52;;;;;;;9.30;3.47;;;;;;;;;;4944669;28;20135;-70
2022/10/05 01:52:25;;;;;;;4.88;3.50;;;;;;;;;;4961196;28;20059;-69
2022/10/05 01:55:11;;;;;;;6.03;3.30;;;;;;;;;;4943240;28;20486;-69
2022/10/05 01:58:03;;;;;;;6.20;3.28;;;;;;;;;;4943848;28;20058;-69
2022/10/05 02:00:34;;;;;;;6.32;3.60;;;;;;;;;;4959636;28;20058;-70
2022/10/05 02:03:17;;;;;;;4.20;3.40;;;;;;;;;;4944258;28;20050;-71
2022/10/05 02:05:53;;;;;;;;;;;;;;;;;;4928194;28;20055;-72
2022/10/05 02:08:31;;;;;;;6.10;3.30;;;;;;;;;;4960541;28;19926;-69
2022/10/05 02:11:04;;;;;;;3.88;3.38;;;;;;;;;;4944280;28;20161;-71
2022/10/05 02:13:30;;;;;;;5.30;3.45;;;;;;;;;;4944441;28;20082;-72
2022/10/05 02:16:03;;;;;;;5.72;3.80;;;;;;;;;;4942796;28;20076;-70
2022/10/05 02:18:39;;;;;;;;;;;;;;;;;;4943650;28;20889;-70
2022/10/05 02:21:07;;;;;;;9.35;3.60;;;;;;;;;;4943977;28;20298;-69
2022/10/05 02:23:36;;;;;;;6.15;3.60;;;;;;;;;;4944067;28;20049;-70
2022/10/05 02:26:03;;;;;;;6.03;3.50;;;;;;;;;;4943860;28;20419;-70
2022/10/05 02:28:41;;;;;;;5.90;3.40;;;;;;;;;;4942184;28;20051;-69
2022/10/05 02:31:10;;;;;;;3.42;2.83;;;;;;;;;;4944062;28;20049;-70
2022/10/05 02:33:36;;;;;;;4.22;3.35;;;;;;;;;;4963875;28;20457;-70
2022/10/05 02:36:13;;;;;;;4.43;3.40;;;;;;;;;;4947094;28;20068;-70
2022/10/05 02:39:17;;;;;;;4.35;3.53;;;;;;;;;;4929081;28;20057;-70
2022/10/05 02:42:01;;;;;;;5.90;4.00;;;;;;;;;;4963828;28;20065;-70
2022/10/05 02:44:54;;;;;;;10.55;4.18;;;;;;;;;;4946328;28;20042;-70
2022/10/05 02:47:38;;;;;;;8.77;4.00;;;;;;;;;;4939683;28;20047;-69
2022/10/05 02:50:25;;;;;;;6.45;3.10;;;;;;;;;;4946420;28;20058;-70
2022/10/05 02:53:03;;;;;;;6.00;3.70;;;;;;;;;;4931330;28;20499;-70
2022/10/05 02:55:34;;;;;;;8.35;3.25;;;;;;;;;;4964205;28;20072;-69
2022/10/05 02:58:20;;;;;;;4.97;3.60;;;;;;;;;;4950145;28;20047;-69
2022/10/05 03:00:53;;;;;;;3.88;3.47;;;;;;;;;;4954587;28;20106;-69
2022/10/05 03:03:31;;;;;;;5.90;2.95;;;;;;;;;;4963805;28;20090;-70
2022/10/05 03:06:02;;;;;;;6.78;3.28;;;;;;;;;;4946405;28;20157;-70
2022/10/05 03:08:48;;;;;;;3.67;3.38;;;;;;;;;;4945663;28;20046;-70
2022/10/05 03:11:35;;;;;;;5.43;3.35;;;;;;;;;;4963294;28;20170;-70
2022/10/05 03:14:29;;;;;;;5.43;3.35;;;;;;;;;;4964154;28;20055;-70
2022/10/05 03:17:29;;;;;;;5.82;3.47;;;;;;;;;;4930490;28;20562;-70
2022/10/05 03:20:10;;;;;;;7.93;3.78;;;;;;;;;;4946913;28;20062;-70
2022/10/05 03:22:49;;;;;;;5.95;3.65;;;;;;;;;;4945556;28;20043;-70
2022/10/05 03:25:23;;;;;;;7.25;3.80;;;;;;;;;;4946392;28;20047;-70
2022/10/05 03:28:11;;;;;;;10.85;4.40;;;;;;;;;;4963442;28;20157;-70
2022/10/05 03:30:49;;;;;;;4.97;3.55;;;;;;;;;;4946028;28;20419;-70
2022/10/05 03:34:05;;;;;;;4.63;4.18;;;;;;;;;;4960942;28;20146;-70
2022/10/05 03:36:50;;;;;;;6.15;3.88;;;;;;;;;;4903831;28;20048;-70
2022/10/05 03:39:59;;;;;;;4.97;3.80;;;;;;;;;;4945865;28;20189;-70
2022/10/05 03:42:46;;;;;;;5.80;3.60;;;;;;;;;;4917182;28;20065;-70
2022/10/05 03:45:33;;;;;;;6.47;3.55;;;;;;;;;;4960754;28;20523;-70
2022/10/05 03:48:14;;;;;;;5.28;4.03;;;;;;;;;;4963020;28;21037;-70
2022/10/05 03:50:58;;;;;;;4.75;3.47;;;;;;;;;;4945641;28;20109;-70
2022/10/05 03:53:49;;;;;;;4.53;3.30;;;;;;;;;;4943023;28;21111;-70
2022/10/05 03:56:32;;;;;;;5.75;4.10;;;;;;;;;;4960217;28;20125;-71
2022/10/05 03:59:14;;;;;;;6.68;4.55;;;;;;;;;;4945793;28;20125;-72
2022/10/05 04:01:54;;;;;;;10.10;4.72;;;;;;;;;;4963298;28;20129;-72
2022/10/05 04:04:26;;;;;;;5.45;4.72;;;;;;;;;;4961461;28;20042;-71
2022/10/05 04:06:54;;;;;;;8.82;5.28;;;;;;;;;;4945291;28;20097;-71
2022/10/05 04:09:25;;;;;;;8.93;6.20;;;;;;;;;;4945643;28;20101;-72
2022/10/05 04:11:56;;;;;;;;;;;;;;;;;;4963591;28;20462;-71
2022/10/05 04:14:36;;;;;;;5.85;3.80;;;;;;;;;;4944737;28;19926;-72
2022/10/05 04:17:08;;;;;;;5.30;4.07;;;;;;;;;;4943468;28;20388;-69
2022/10/05 04:19:48;;;;;;;5.38;3.58;;;;;;;;;;4962412;28;21073;-71
2022/10/05 04:22:36;;;;;;;6.22;4.15;;;;;;;;;;4929198;28;20117;-70
2022/10/05 04:25:22;;;;;;;4.75;3.88;;;;;;;;;;4945127;28;20047;-70
2022/10/05 04:28:37;;;;;;;5.07;3.90;;;;;;;;;;4942001;28;20039;-70
2022/10/05 04:31:09;;;;;;;5.18;4.38;;;;;;;;;;4946778;28;20053;-72
2022/10/05 04:33:34;;;;;;;5.85;4.00;;;;;;;;;;4945225;28;20117;-71
2022/10/05 04:36:17;;;;;;;5.43;3.88;;;;;;;;;;4941922;28;20976;-71
2022/10/05 04:39:11;;;;;;;6.57;3.97;;;;;;;;;;4959277;28;20055;-69
2022/10/05 04:41:44;;;;;;;6.50;4.13;;;;;;;;;;4937912;28;20038;-71
2022/10/05 04:44:24;;;;;;;5.10;3.60;;;;;;;;;;4961825;28;20058;-70
2022/10/05 04:47:21;;;;;;;4.53;3.42;;;;;;;;;;4928561;28;20122;-72
2022/10/05 04:50:10;;;;;;;5.63;4.35;;;;;;;;;;4943305;28;20043;-72
2022/10/05 04:53:06;;;;;;;6.35;4.20;;;;;;;;;;4942299;28;20050;-70
2022/10/05 04:56:14;;;;;;;9.48;3.85;;;;;;;;;;4942118;28;20061;-71
2022/10/05 04:58:56;;;;;;;5.35;4.07;;;;;;;;;;4924049;28;20046;-72
2022/10/05 05:01:40;;;;;;;8.38;3.75;;;;;;;;;;4960501;28;20046;-71
2022/10/05 05:04:22;;;;;;;6.45;3.90;;;;;;;;;;4959956;28;20035;-70
2022/10/05 05:06:55;;;;;;;5.00;4.15;;;;;;;;;;4904823;28;20223;-69
2022/10/05 05:09:49;;;;;;;7.90;3.42;;;;;;;;;;4961340;28;20051;-70
2022/10/05 05:12:41;;;;;;;9.20;3.65;;;;;;;;;;4918266;28;20043;-70
2022/10/05 05:15:23;;;;;;;;;;;;;;;;;;4935314;28;20054;-71
2022/10/05 05:18:28;;;;;;;6.47;3.65;;;;;;;;;;4958117;28;19922;-69
2022/10/05 05:21:07;;;;;;;4.63;3.20;;;;;;;;;;4912000;28;20053;-68
2022/10/05 05:23:43;;;;;;;6.15;3.70;;;;;;;;;;4941959;28;20066;-70
2022/10/05 05:26:33;;;;;;;6.38;4.30;;;;;;;;;;4942088;28;20415;-70
2022/10/05 05:29:21;;;;;;;10.55;5.35;;;;;;;;;;4943066;28;20097;-70
2022/10/05 05:31:55;;;;;;;6.10;4.07;;;;;;;;;;4960708;28;20077;-71
2022/10/05 05:34:42;;;;;;;7.85;4.10;;;;;;;;;;4942519;28;20070;-71
2022/10/05 05:37:45;;;;;;;5.78;4.00;;;;;;;;;;4944155;28;20141;-70
2022/10/05 05:40:15;;;;;;;13.02;4.30;;;;;;;;;;4943519;28;21321;-73
2022/10/05 05:43:21;;;;;;;5.77;4.20;;;;;;;;;;4944434;28;20046;-69
2022/10/05 05:46:04;;;;;;;5.38;3.97;;;;;;;;;;4943991;28;20042;-71
2022/10/05 05:48:36;;;;;;;6.75;4.80;;;;;;;;;;4960897;28;20053;-69
2022/10/05 05:51:17;;;;;;;9.05;4.60;;;;;;;;;;4944069;28;20070;-70
2022/10/05 05:54:17;;;;;;;7.20;4.63;;;;;;;;;;4944244;28;20448;-70
2022/10/05 05:56:52;;;;;;;6.70;4.60;;;;;;;;;;4904982;28;20047;-72
2022/10/05 05:59:45;;;;;;;5.93;3.92;;;;;;;;;;4954737;28;20174;-72
2022/10/05 06:02:15;;;;;;;5.22;4.03;;;;;;;;;;4962861;28;20486;-70
2022/10/05 06:04:46;;;;;;;4.30;3.85;;;;;;;;;;4932603;28;20069;-69
2022/10/05 06:07:15;;;;;;;;;;;;;;;;;;4959525;28;20046;-70
2022/10/05 06:09:48;;;;;;;4.20;3.50;;;;;;;;;;4947915;28;19922;-71
2022/10/05 06:12:44;;;;;;;7.13;3.58;;;;;;;;;;4963887;28;20047;-70
2022/10/05 06:15:23;;;;;;;6.15;3.53;;;;;;;;;;4948121;28;20125;-72
2022/10/05 06:17:54;;;;;;;6.75;4.45;;;;;;;;;;4930704;28;20492;-71
2022/10/05 06:20:27;;;;;;;10.13;5.38;;;;;;;;;;4931687;28;20101;-71
2022/10/05 06:22:59;;;;;;;17.85;8.00;;;;;;;;;;4947454;28;20415;-72
2022/10/05 06:25:31;;;;;;;6.50;4.30;;;;;;;;;;4947701;28;20443;-71
2022/10/05 06:28:02;;;;;;;24.85;10.35;;;;;;;;;;4930343;28;20526;-70
2022/10/05 06:30:59;;;;;;;6.45;3.70;;;;;;;;;;4946391;28;20043;-72
2022/10/05 06:33:53;;;;;;;5.05;2.83;;;;;;;;;;4963263;28;20101;-72
2022/10/05 06:36:37;;;;;;;3.15;2.85;;;;;;;;;;4962274;28;20050;-70
2022/10/05 06:39:18;;;;;;;4.38;2.25;;;;;;;;;;4963831;28;20054;-72
2022/10/05 06:41:52;;;;;;;2.92;2.28;;;;;;;;;;4947086;28;20518;-72
2022/10/05 06:44:29;;;;;;;2.63;1.63;;;;;;;;;;4963052;28;20043;-70
2022/10/05 06:47:43;;;;;;;2.30;1.40;;;;;;;;;;4947502;28;21003;-70
2022/10/05 06:50:39;;;;;;;1.92;1.60;;;;;;;;;;4945695;28;20058;-68
2022/10/05 06:53:56;;;;;;;2.30;1.52;;;;;;;;;;4953122;28;20326;-71
2022/10/05 06:56:34;;;;;;;3.70;1.67;;;;;;;;;;4962171;28;20046;-72
2022/10/05 06:59:55;;;;;;;2.47;1.60;;;;;;;;;;4946815;28;20054;-71
2022/10/05 07:02:52;;;;;;;3.08;1.48;;;;;;;;;;4957322;28;20054;-71
2022/10/05 07:05:27;;;;;;;2.17;1.60;;;;;;;;;;4944038;28;20038;-70
2022/10/05 07:08:03;;;;;;;4.47;1.40;;;;;;;;;;4946559;28;20043;-71
2022/10/05 07:10:38;;;;;;;6.13;1.65;;;;;;;;;;4946601;28;20373;-70
2022/10/05 07:13:04;;;;;;;1.83;1.45;;;;;;;;;;4945365;28;20530;-72
2022/10/05 07:15:33;;;;;;;3.45;1.50;;;;;;;;;;4946610;28;20043;-71
2022/10/05 07:18:01;;;;;;;2.95;1.70;;;;;;;;;;4946225;28;20412;-73
2022/10/05 07:20:31;;;;;;;2.33;1.40;;;;;;;;;;4945777;28;20039;-71
2022/10/05 07:23:15;;;;;;;4.03;1.60;;;;;;;;;;4962699;28;20519;-72
2022/10/05 07:26:01;;;;;;;1.95;1.58;;;;;;;;;;4946435;28;20073;-71
2022/10/05 07:28:40;;;;;;;2.75;2.08;;;;;;;;;;4945132;28;20555;-68
2022/10/05 07:31:15;;;;;;;2.05;1.80;;;;;;;;;;4946427;28;20055;-71
2022/10/05 07:34:08;;;;;;;2.22;1.95;;;;;;;;;;4945390;28;20133;-72
2022/10/05 07:40:16;;;;;;;5.07;2.67;;;;;;;;;;4940746;28;20562;-70
2022/10/05 07:43:20;;;;;;;2.40;2.10;;;;;;;;;;4944329;28;20073;-69
2022/10/05 07:46:01;;;;;;;2.00;1.80;;;;;;;;;;4960862;28;20070;-70
2022/10/05 07:48:42;;;;;;;4.32;2.05;;;;;;;;;;4945077;28;20120;-69
2022/10/05 07:51:24;;;;;;;2.95;1.77;;;;;;;;;;4946027;28;20088;-69
2022/10/05 07:54:05;;;;;;;1.63;1.50;;;;;;;;;;4963278;28;20046;-71
2022/10/05 07:56:58;;;;;;;4.15;1.48;;;;;;;;;;4937630;28;20467;-72
2022/10/05 07:59:30;;;;;;;3.15;1.40;;;;;;;;;;4947467;28;20057;-72
2022/10/05 08:02:17;;;;;;;1.40;1.30;;;;;;;;;;4945562;28;20755;-70
2022/10/05 08:04:56;;;;;;;4.35;1.50;;;;;;;;;;4944708;28;20047;-69
2022/10/05 08:07:22;;;;;;;3.95;1.60;;;;;;;;;;4962055;28;20047;-71
2022/10/05 08:10:18;;;;;;;1.95;1.80;;;;;;;;;;4962908;28;20046;-71
2022/10/05 08:12:56;;;;;;;2.35;1.40;;;;;;;;;;4944341;28;20142;-69
2022/10/05 08:15:30;;;;;;;1.23;1.13;;;;;;;;;;4962516;28;20077;-69
2022/10/05 08:18:04;;;;;;;2.15;1.25;;;;;;;;;;4962126;28;20043;-70
2022/10/05 08:20:37;;;;;;;5.00;1.48;;;;;;;;;;4962211;28;20054;-70
2022/10/05 08:23:19;;;;;;;3.90;1.23;;;;;;;;;;4945334;28;20051;-70
2022/10/05 08:26:04;;;;;;;1.40;1.30;;;;;;;;;;4962870;28;20050;-70
2022/10/05 08:28:36;;;;;;;2.63;1.30;;;;;;;;;;4961467;28;20116;-71
2022/10/05 08:31:16;;;;;;;1.52;1.17;;;;;;;;;;4962220;28;20081;-69
2022/10/05 08:34:01;;;;;;;6.28;1.38;;;;;;;;;;4961824;28;20050;-70
2022/10/05 08:37:14;;;;;;;5.45;1.00;;;;;;;;;;4961774;28;20761;-69
2022/10/05 08:39:46;;;;;;;1.65;1.20;;;;;;;;;;4956065;28;20217;-70
2022/10/05 08:42:39;;;;;;;1.17;1.08;;;;;;;;;;4961906;28;20415;-74
2022/10/05 08:45:42;;;;;;;1.10;1.00;;;;;;;;;;4962562;28;20502;-71
2022/10/05 08:48:30;;;;;;;3.90;1.13;;;;;;;;;;4962179;28;20070;-69
2022/10/05 08:51:02;;;;;;;5.22;0.98;;;;;;;;;;4945860;28;20042;-70
2022/10/05 08:53:42;;;;;;;1.27;1.17;;;;;;;;;;4962028;28;20051;-68
2022/10/05 08:56:35;;;;;;;3.70;1.17;;;;;;;;;;4962340;28;20055;-70
2022/10/05 08:59:07;;;;;;;1.45;1.00;;;;;;;;;;4945735;28;20052;-70
2022/10/05 09:02:10;;;;;;;4.32;1.02;;;;;;;;;;4961740;28;20053;-70
2022/10/05 09:04:56;;;;;;;1.98;1.20;;;;;;;;;;4961584;28;20042;-69
2022/10/05 09:07:43;;;;;;;1.20;1.10;;;;;;;;;;4961459;28;20097;-68
2022/10/05 09:10:11;;;;;;;2.83;1.10;;;;;;;;;;4962101;28;20138;-69
2022/10/05 09:13:03;;;;;;;1.90;1.30;;;;;;;;;;4960697;28;20515;-70
2022/10/05 09:15:38;;;;;;;2.75;1.30;;;;;;;;;;4952358;28;20062;-71
2022/10/05 09:18:35;;;;;;;1.90;1.08;;;;;;;;;;4961670;28;20050;-73
2022/10/05 09:21:40;;;;;;;3.45;0.93;;;;;;;;;;4945948;28;20151;-71
2022/10/05 09:24:12;;;;;;;4.13;1.23;;;;;;;;;;4961127;28;20125;-70
2022/10/05 09:27:10;;;;;;;1.65;1.00;;;;;;;;;;4961085;28;20059;-70
2022/10/05 09:29:35;;;;;;;1.75;1.00;;;;;;;;;;4961263;28;20051;-70
2022/10/05 09:32:19;;;;;;;3.13;0.80;;;;;;;;;;4961612;28;20936;-69
2022/10/05 09:35:03;;;;;;;3.15;1.05;;;;;;;;;;4942530;28;20105;-71
2022/10/05 09:37:52;;;;;;;1.63;1.00;;;;;;;;;;4961228;28;20117;-72
2022/10/05 09:40:29;;;;;;;8.48;1.30;;;;;;;;;;4961257;28;20182;-71
2022/10/05 09:43:19;;;;;;;2.10;0.93;;;;;;;;;;4964910;28;20059;-71
2022/10/05 09:46:11;;;;;;;1.33;1.20;;;;;;;;;;4965175;28;20097;-70
2022/10/05 09:48:55;;;;;;;3.08;0.93;;;;;;;;;;4964653;28;20050;-70
2022/10/05 09:51:32;;;;;;;1.08;0.95;;;;;;;;;;4965428;28;20598;-71
2022/10/05 09:54:27;;;;;;;0.80;0.70;;;;;;;;;;4965525;28;20062;-69
2022/10/05 09:57:05;;;;;;;1.08;1.00;;;;;;;;;;4947968;28;20061;-70
2022/10/05 10:00:04;;;;;;;3.42;1.00;;;;;;;;;;4965239;28;20308;-71
2022/10/05 10:03:12;;;;;;;2.97;0.80;;;;;;;;;;4964807;28;20054;-71
2022/10/05 10:06:10;;;;;;;3.42;1.25;;;;;;;;;;4953156;28;20034;-70
2022/10/05 10:09:08;;;;;;;5.47;0.77;;;;;;;;;;4963955;28;20066;-71
2022/10/05 10:12:16;;;;;;;2.35;0.90;;;;;;;;;;4954736;28;20110;-71
2022/10/05 10:15:06;;;;;;;0.93;0.82;;;;;;;;;;4964470;28;20435;-72
2022/10/05 10:18:05;;;;;;;1.00;0.88;;;;;;;;;;4964895;28;20046;-71
2022/10/05 10:20:40;;;;;;;0.73;0.73;;;;;;;;;;4964036;28;20050;-73
2022/10/05 10:23:47;;;;;;;1.80;0.90;;;;;;;;;;4964684;28;20978;-70
2022/10/05 10:26:44;;;;;;;0.85;0.77;;;;;;;;;;4904999;29;20047;-71
2022/10/05 10:29:15;;;;;;;4.55;1.20;;;;;;;;;;4948977;28;20058;-69
2022/10/05 10:32:06;;;;;;;6.63;0.80;;;;;;;;;;4963773;28;20069;-69
2022/10/05 10:34:52;;;;;;;3.47;1.13;;;;;;;;;;4962544;28;20043;-70
2022/10/05 10:37:24;;;;;;;4.25;0.90;;;;;;;;;;4964489;28;20286;-72
2022/10/05 10:40:05;;;;;;;4.90;1.00;;;;;;;;;;4965162;28;20412;-71
2022/10/05 10:42:40;;;;;;;4.00;1.10;;;;;;;;;;4963110;28;20038;-72
2022/10/05 10:45:18;;;;;;;1.65;1.10;;;;;;;;;;4964765;28;20058;-72
2022/10/05 10:47:51;;;;;;;7.20;1.05;;;;;;;;;;4967265;28;20105;-72
2022/10/05 10:50:51;;;;;;;2.13;0.93;;;;;;;;;;4964656;28;20043;-71
2022/10/05 10:53:40;;;;;;;1.08;0.68;;;;;;;;;;4962130;28;20042;-69
2022/10/05 10:56:21;;;;;;;1.35;0.93;;;;;;;;;;4946952;28;20590;-68
2022/10/05 10:59:26;;;;;;;4.13;1.00;;;;;;;;;;4946138;28;20514;-71
2022/10/05 11:02:29;;;;;;;3.75;1.20;;;;;;;;;;4964468;28;20038;-71
2022/10/05 11:05:34;;;;;;;1.40;0.98;;;;;;;;;;4946789;28;20050;-72
2022/10/05 11:08:15;;;;;;;3.47;0.98;;;;;;;;;;4964236;28;20062;-72
2022/10/05 11:10:53;;;;;;;3.10;0.80;;;;;;;;;;4963732;28;20059;-72
2022/10/05 11:13:46;;;;;;;1.63;0.82;;;;;;;;;;4945861;28;20043;-73
2022/10/05 11:16:29;;;;;;;1.92;0.90;;;;;;;;;;4964011;28;20051;-72
2022/10/05 11:19:10;;;;;;;2.03;1.00;;;;;;;;;;4947370;28;20054;-73
2022/10/05 11:22:03;;;;;;;1.13;0.80;;;;;;;;;;4964066;28;20538;-71
2022/10/05 11:24:37;;;;;;;3.25;0.90;;;;;;;;;;4962331;28;20190;-73
2022/10/05 11:27:28;;;;;;;1.40;0.70;;;;;;;;;;4963889;28;20074;-71
2022/10/05 11:30:21;;;;;;;2.35;0.73;;;;;;;;;;4963853;28;20073;-72
2022/10/05 11:33:23;;;;;;;0.95;0.68;;;;;;;;;;4959994;28;20389;-73
2022/10/05 11:36:03;;;;;;;6.15;0.90;;;;;;;;;;4961065;28;20054;-74
2022/10/05 11:38:35;;;;;;;5.07;1.07;;;;;;;;;;4961054;28;20053;-71
2022/10/05 11:41:46;;;;;;;2.05;0.80;;;;;;;;;;4962442;28;20051;-71
2022/10/05 11:44:20;;;;;;;2.45;0.82;;;;;;;;;;4923908;28;20094;-71
2022/10/05 11:47:11;;;;;;;1.10;1.00;;;;;;;;;;4942958;28;20514;-71
2022/10/05 11:50:05;;;;;;;5.20;0.90;;;;;;;;;;4951876;28;20062;-70
2022/10/05 11:52:30;;;;;;;4.03;1.00;;;;;;;;;;4961991;28;20043;-70
2022/10/05 11:55:12;;;;;;;0.70;0.70;;;;;;;;;;4962645;28;20546;-71
2022/10/05 11:57:37;;;;;;;;;;;;;;;;;;4962049;28;20050;-71
2022/10/05 12:00:10;;;;;;;6.15;0.75;;;;;;;;;;4962302;28;19929;-70
2022/10/05 12:02:48;;;;;;;3.28;0.90;;;;;;;;;;4961208;28;20058;-70
2022/10/05 12:05:35;;;;;;;2.92;0.82;;;;;;;;;;4958565;28;20113;-70
2022/10/05 12:08:19;;;;;;;2.88;0.77;;;;;;;;;;4942606;28;20065;-70
2022/10/05 12:10:54;;;;;;;1.27;0.75;;;;;;;;;;4961444;28;20051;-70
2022/10/05 12:13:22;;;;;;;1.50;0.73;;;;;;;;;;4958305;28;20059;-73
2022/10/05 12:16:03;;;;;;;1.13;0.73;;;;;;;;;;4961641;28;20050;-72
2022/10/05 12:18:28;;;;;;;4.60;0.93;;;;;;;;;;4961179;28;20047;-73
2022/10/05 12:21:23;;;;;;;2.05;0.90;;;;;;;;;;4961241;28;20534;-71
2022/10/05 12:24:06;;;;;;;2.92;0.90;;;;;;;;;;4961665;28;20134;-71
2022/10/05 12:26:43;;;;;;;1.10;0.80;;;;;;;;;;4960941;28;20047;-71
2022/10/05 12:29:22;;;;;;;0.80;0.80;;;;;;;;;;4959844;28;20076;-69
2022/10/05 12:32:05;;;;;;;2.75;0.90;;;;;;;;;;4960525;28;20515;-70
2022/10/05 12:34:54;;;;;;;1.33;0.68;;;;;;;;;;4942103;28;20046;-72
2022/10/05 12:37:32;;;;;;;3.25;0.88;;;;;;;;;;4962505;28;20129;-72
2022/10/05 12:40:27;;;;;;;2.78;0.68;;;;;;;;;;4963866;28;20046;-72
2022/10/05 12:43:01;;;;;;;3.72;0.88;;;;;;;;;;4943282;28;20047;-71
2022/10/05 12:45:46;;;;;;;5.25;0.70;;;;;;;;;;4962074;28;20042;-72
2022/10/05 12:48:23;;;;;;;2.80;0.77;;;;;;;;;;4961942;28;20047;-70
2022/10/05 12:50:55;;;;;;;3.75;0.70;;;;;;;;;;4944300;28;20051;-71
2022/10/05 12:53:29;;;;;;;;;;;;;;;;;;4961220;28;20043;-70
2022/10/05 12:56:12;;;;;;;0.80;0.65;;;;;;;;;;4961670;28;19922;-71
2022/10/05 12:58:43;;;;;;;1.40;0.73;;;;;;;;;;4960761;28;20046;-71
2022/10/05 13:01:30;;;;;;;4.57;0.80;;;;;;;;;;4961637;28;20121;-71
2022/10/05 13:03:59;;;;;;;2.22;0.95;;;;;;;;;;4959594;28;20054;-71
2022/10/05 13:06:32;;;;;;;0.75;0.75;;;;;;;;;;4959474;28;20035;-70
2022/10/05 13:09:10;;;;;;;1.98;0.80;;;;;;;;;;4943197;28;20150;-70
2022/10/05 13:11:48;;;;;;;0.77;0.77;;;;;;;;;;4960046;28;20047;-70
2022/10/05 13:14:49;;;;;;;0.82;0.63;;;;;;;;;;4958517;28;20447;-71
2022/10/05 13:17:31;;;;;;;3.00;1.05;;;;;;;;;;4938400;28;20530;-73
2022/10/05 13:20:01;;;;;;;1.23;0.80;;;;;;;;;;4960000;28;20050;-71
2022/10/05 13:22:35;;;;;;;0.82;0.73;;;;;;;;;;4957693;28;20069;-70
2022/10/05 13:25:12;;;;;;;3.05;0.80;;;;;;;;;;4960743;28;20055;-70
2022/10/05 13:28:06;;;;;;;1.77;0.90;;;;;;;;;;4959769;28;20672;-71
2022/10/05 13:30:33;;;;;;;3.03;0.65;;;;;;;;;;4954474;28;20049;-72
2022/10/05 13:33:26;;;;;;;1.65;0.90;;;;;;;;;;4959951;28;20472;-71
2022/10/05 13:36:12;;;;;;;0.80;0.65;;;;;;;;;;4961124;28;20038;-71
2022/10/05 13:39:03;;;;;;;4.63;1.15;;;;;;;;;;4959630;28;20057;-69
2022/10/05 13:42:14;;;;;;;1.02;0.70;;;;;;;;;;4960310;28;20389;-69
2022/10/05 13:44:53;;;;;;;2.70;0.90;;;;;;;;;;4946607;28;20051;-72
2022/10/05 13:47:26;;;;;;;6.15;0.77;;;;;;;;;;4960191;28;20923;-71
2022/10/05 13:49:54;;;;;;;3.85;0.80;;;;;;;;;;4960509;28;20161;-70
2022/10/05 13:52:35;;;;;;;1.13;0.70;;;;;;;;;;4959627;28;20042;-69
2022/10/05 13:55:34;;;;;;;3.05;0.68;;;;;;;;;;4958731;28;20058;-70
2022/10/05 13:58:18;;;;;;;3.38;0.75;;;;;;;;;;4965188;28;20121;-70
2022/10/05 14:01:21;;;;;;;2.75;1.00;;;;;;;;;;4935717;28;20097;-70
2022/10/05 14:04:25;;;;;;;3.65;0.68;;;;;;;;;;4955608;28;20450;-70
2022/10/05 14:06:51;;;;;;;3.60;0.95;;;;;;;;;;4926873;28;20590;-69
2022/10/05 14:09:26;;;;;;;2.60;0.70;;;;;;;;;;4959499;28;20580;-70
2022/10/05 14:12:03;;;;;;;1.27;0.90;;;;;;;;;;4959098;28;20043;-70
2022/10/05 14:14:44;;;;;;;5.25;1.13;;;;;;;;;;4958050;28;20050;-69
2022/10/05 14:17:14;;;;;;;3.47;0.80;;;;;;;;;;4959939;28;20054;-69
2022/10/05 14:19:42;;;;;;;2.03;0.80;;;;;;;;;;4959999;28;20634;-69
2022/10/05 14:22:22;;;;;;;2.05;1.00;;;;;;;;;;4958942;28;20410;-70
2022/10/05 14:25:06;;;;;;;2.72;1.17;;;;;;;;;;4926887;28;20145;-70
2022/10/05 14:28:22;;;;;;;1.33;1.00;;;;;;;;;;4959580;28;20046;-69
2022/10/05 14:31:00;;;;;;;3.50;1.20;;;;;;;;;;4929283;28;20147;-70
2022/10/05 14:33:30;;;;;;;4.10;1.13;;;;;;;;;;4962480;28;20038;-69
2022/10/05 14:35:57;;;;;;;0.95;0.93;;;;;;;;;;4963596;28;20113;-70
2022/10/05 14:38:28;;;;;;;1.67;1.10;;;;;;;;;;4963321;28;20525;-69
2022/10/05 14:41:16;;;;;;;2.47;1.10;;;;;;;;;;4964778;28;20054;-70
2022/10/05 14:44:08;;;;;;;3.42;1.25;;;;;;;;;;4962885;28;20346;-70
2022/10/05 14:46:35;;;;;;;2.30;1.25;;;;;;;;;;4962179;28;20047;-69
2022/10/05 14:49:18;;;;;;;5.22;1.02;;;;;;;;;;4964362;28;20059;-69
2022/10/05 14:51:43;;;;;;;1.90;1.13;;;;;;;;;;4947428;28;20039;-70
2022/10/05 14:54:24;;;;;;;6.20;1.00;;;;;;;;;;4962498;28;20058;-69
2022/10/05 14:57:15;;;;;;;5.35;1.40;;;;;;;;;;4935559;28;20519;-71
2022/10/05 14:59:59;;;;;;;1.55;1.00;;;;;;;;;;4941272;28;20055;-69
2022/10/05 15:03:02;;;;;;;3.95;1.17;;;;;;;;;;4963673;28;20077;-70
2022/10/05 15:05:40;;;;;;;4.63;1.00;;;;;;;;;;4963098;28;20043;-69
2022/10/05 15:08:18;;;;;;;4.47;1.00;;;;;;;;;;4963913;28;20046;-69
2022/10/05 15:10:59;;;;;;;0.95;0.93;;;;;;;;;;4964076;28;20058;-69
2022/10/05 15:13:31;;;;;;;1.83;1.00;;;;;;;;;;4962534;28;20510;-69
2022/10/05 15:16:05;;;;;;;5.82;1.20;;;;;;;;;;4963165;28;21391;-70
2022/10/05 15:18:55;;;;;;;1.55;0.88;;;;;;;;;;4963133;28;20141;-70
2022/10/05 15:21:46;;;;;;;2.50;1.10;;;;;;;;;;4936224;28;20053;-70
2022/10/05 15:24:19;;;;;;;4.38;0.82;;;;;;;;;;4963130;28;20522;-70
2022/10/05 15:26:55;;;;;;;3.22;0.93;;;;;;;;;;4963281;28;20105;-69
2022/10/05 15:29:37;;;;;;;3.88;1.02;;;;;;;;;;4963032;28;20547;-69
2022/10/05 15:32:30;;;;;;;1.02;0.90;;;;;;;;;;4963585;28;20050;-69
2022/10/05 15:35:19;;;;;;;3.83;1.20;;;;;;;;;;4946270;28;20098;-69
2022/10/05 15:37:58;;;;;;;4.07;0.98;;;;;;;;;;4952251;28;20055;-69
2022/10/05 15:41:10;;;;;;;1.27;1.17;;;;;;;;;;4960069;28;20049;-69
2022/10/05 15:44:17;;;;;;;4.50;1.20;;;;;;;;;;4944794;28;20046;-70
2022/10/05 15:46:42;;;;;;;4.53;1.20;;;;;;;;;;4959745;28;20058;-69
2022/10/05 15:49:37;;;;;;;2.90;1.58;;;;;;;;;;4958867;28;20051;-69
2022/10/05 15:52:28;;;;;;;3.97;1.42;;;;;;;;;;4960057;28;20057;-69
2022/10/05 15:55:03;;;;;;;1.23;1.10;;;;;;;;;;4938839;28;20499;-69
2022/10/05 15:57:40;;;;;;;2.22;1.15;;;;;;;;;;4961353;28;20058;-69
2022/10/05 16:00:17;;;;;;;2.05;1.15;;;;;;;;;;4960666;28;20050;-69
2022/10/05 16:02:52;;;;;;;11.65;1.48;;;;;;;;;;4942806;28;20138;-69
2022/10/05 16:08:52;;;;;;;1.30;1.10;;;;;;;;;;4960854;28;20518;-69
2022/10/05 16:11:43;;;;;;;3.88;1.20;;;;;;;;;;4960748;28;20106;-69
2022/10/05 16:14:31;;;;;;;4.68;1.85;;;;;;;;;;4961206;28;20039;-69
2022/10/05 16:17:22;;;;;;;2.40;1.10;;;;;;;;;;4943540;28;20059;-69
2022/10/05 16:20:21;;;;;;;4.33;1.40;;;;;;;;;;4960253;28;20078;-69
2022/10/05 16:23:05;;;;;;;4.25;1.35;;;;;;;;;;4940687;28;20055;-69